Time;durP1;ratioP1;P1;durP2;ratioP2;P2;SDS_P1;SDS_P2;PMS_P1;PMS_P2;Temp;Humidity;BMP_temperature;BMP_pressure;BME280_temperature;BME280_humidity;BME280_pressure;Samples;Min_cycle;Max_cycle;Signal;HPM_P1;HPM_P2
2023/01/01 00:00:59;;;;;;;;;;;18.80;64.40;;;;;;4970844;28;1371;-72
2023/01/01 00:03:24;;;;;;;;;;;18.80;64.50;;;;;;4968645;28;2178;-69
2023/01/01 00:05:50;;;;;;;;;;;18.80;64.50;;;;;;4970448;28;1738;-69
2023/01/01 00:08:15;;;;;;;;;;;18.80;64.50;;;;;;4972308;28;1079;-69
2023/01/01 00:10:40;;;;;;;;;;;18.80;64.50;;;;;;4971051;28;1336;-69
2023/01/01 00:13:06;;;;;;;;;;;18.80;64.50;;;;;;4971705;28;888;-69
2023/01/01 00:15:31;;;;;;;;;;;18.80;64.60;;;;;;4971337;28;1054;-69
2023/01/01 00:17:57;;;;;;;;;;;18.80;64.60;;;;;;4970186;28;997;-69
2023/01/01 00:20:22;;;;;;;;;;;18.80;64.60;;;;;;4971154;28;1265;-68
2023/01/01 00:22:48;;;;;;;;;;;18.70;64.60;;;;;;4971176;28;1915;-69
2023/01/01 00:25:13;;;;;;;;;;;18.70;64.60;;;;;;4970664;28;912;-68
2023/01/01 00:27:39;;;;;;;;;;;18.70;64.60;;;;;;4971551;28;809;-68
2023/01/01 00:30:05;;;;;;;;;;;18.70;64.70;;;;;;4971106;28;856;-69
2023/01/01 00:32:31;;;;;;;;;;;18.70;64.70;;;;;;4986453;28;1225;-68
2023/01/01 00:34:56;;;;;;;;;;;18.70;64.70;;;;;;4969978;28;838;-68
2023/01/01 00:37:22;;;;;;;;;;;18.70;64.70;;;;;;4971251;28;907;-68
2023/01/01 00:39:47;;;;;;;;;;;18.70;64.70;;;;;;4970390;28;1070;-69
2023/01/01 00:42:12;;;;;;;;;;;18.70;64.80;;;;;;4971132;28;1891;-69
2023/01/01 00:44:38;;;;;;;;;;;18.70;64.80;;;;;;4971324;28;876;-68
2023/01/01 00:47:03;;;;;;;;;;;18.70;64.80;;;;;;4971520;28;896;-69
2023/01/01 00:49:29;;;;;;;;;;;18.70;64.80;;;;;;4971044;28;844;-69
2023/01/01 00:51:54;;;;;;;;;;;18.70;64.90;;;;;;4969799;28;1320;-68
2023/01/01 00:54:20;;;;;;;;;;;18.70;64.90;;;;;;4973416;28;873;-68
2023/01/01 00:56:45;;;;;;;;;;;18.70;64.90;;;;;;4974840;28;954;-68
2023/01/01 00:59:11;;;;;;;;;;;18.60;64.80;;;;;;4974113;28;979;-68
2023/01/01 01:01:36;;;;;;;;;;;18.60;64.90;;;;;;4974230;28;1942;-68
2023/01/01 01:04:02;;;;;;;;;;;18.60;64.90;;;;;;4974858;28;1333;-68
2023/01/01 01:06:28;;;;;;;;;;;18.60;64.90;;;;;;4974889;28;1333;-69
2023/01/01 01:08:53;;;;;;;;;;;18.60;64.90;;;;;;4974712;28;1181;-68
2023/01/01 01:11:20;;;;;;;;;;;18.60;64.90;;;;;;4974328;28;1277;-68
2023/01/01 01:13:46;;;;;;;;;;;18.60;65.00;;;;;;4974650;28;805;-68
2023/01/01 01:16:12;;;;;;;;;;;18.60;65.00;;;;;;4974809;28;852;-68
2023/01/01 01:18:38;;;;;;;;;;;18.60;65.80;;;;;;4973352;28;851;-68
2023/01/01 01:21:03;;;;;;;;;;;18.60;65.00;;;;;;4972928;28;1340;-68
2023/01/01 01:23:29;;;;;;;;;;;18.60;65.00;;;;;;4974641;28;1906;-69
2023/01/01 01:26:04;;;;;;;;;;;18.60;65.10;;;;;;4973320;28;916;-68
2023/01/01 01:28:30;;;;;;;;;;;18.60;65.10;;;;;;4973328;28;931;-68
2023/01/01 01:30:58;;;;;;;;;;;18.60;65.10;;;;;;4988943;28;1360;-68
2023/01/01 01:33:23;;;;;;;;;;;18.60;65.10;;;;;;4972852;28;867;-69
2023/01/01 01:35:49;;;;;;;;;;;18.60;65.10;;;;;;4974232;28;895;-68
2023/01/01 01:38:15;;;;;;;;;;;18.60;65.20;;;;;;4973007;28;1351;-68
2023/01/01 01:40:43;;;;;;;;;;;18.60;65.20;;;;;;4973944;28;1264;-68
2023/01/01 01:43:18;;;;;;;;;;;18.60;65.20;;;;;;4974195;28;1918;-71
2023/01/01 01:45:44;;;;;;;;;;;18.50;65.20;;;;;;4971237;28;1027;-71
2023/01/01 01:48:10;;;;;;;;;;;18.50;65.20;;;;;;4972645;28;876;-68
2023/01/01 01:50:36;;;;;;;;;;;18.50;65.20;;;;;;4972505;28;1269;-68
2023/01/01 01:53:05;;;;;;;;;;;18.50;65.20;;;;;;4975133;28;856;-72
2023/01/01 01:55:31;;;;;;;;;;;18.50;65.20;;;;;;4974126;28;748;-68
2023/01/01 01:57:57;;;;;;;;;;;18.50;65.30;;;;;;4973333;28;817;-69
2023/01/01 02:00:22;;;;;;;;;;;18.50;65.30;;;;;;4973903;28;1315;-71
2023/01/01 02:02:55;;;;;;;;;;;18.50;65.30;;;;;;4974287;28;1969;-71
2023/01/01 02:05:21;;;;;;;;;;;18.50;65.30;;;;;;4971551;28;1043;-69
2023/01/01 02:07:46;;;;;;;;;;;18.50;65.30;;;;;;4973780;28;802;-68
2023/01/01 02:10:11;;;;;;;;;;;18.50;65.30;;;;;;4971958;28;1364;-68
2023/01/01 02:12:37;;;;;;;;;;;18.50;65.30;;;;;;4973647;28;1635;-69
2023/01/01 02:15:03;;;;;;;;;;;18.50;65.30;;;;;;4972318;28;1062;-69
2023/01/01 02:17:31;;;;;;;;;;;18.50;65.30;;;;;;4971451;28;926;-71
2023/01/01 02:19:59;;;;;;;;;;;18.50;65.40;;;;;;4973170;28;857;-68
2023/01/01 02:22:28;;;;;;;;;;;18.50;65.40;;;;;;4973281;28;1910;-71
2023/01/01 02:25:06;;;;;;;;;;;18.50;65.40;;;;;;4972176;28;938;-69
2023/01/01 02:27:57;;;;;;;;;;;18.50;65.40;;;;;;4973126;28;900;-69
2023/01/01 02:30:23;;;;;;;;;;;18.50;65.40;;;;;;4971578;28;1371;-68
2023/01/01 02:32:49;;;;;;;;;;;18.50;65.40;;;;;;4973306;28;888;-68
2023/01/01 02:35:35;;;;;;;;;;;18.50;65.40;;;;;;4971967;28;1023;-68
2023/01/01 02:38:03;;;;;;;;;;;18.50;65.50;;;;;;4971633;28;828;-71
2023/01/01 02:40:28;;;;;;;;;;;18.50;65.50;;;;;;4972694;28;1284;-68
2023/01/01 02:42:54;;;;;;;;;;;18.50;65.50;;;;;;4971837;28;1970;-68
2023/01/01 02:45:20;;;;;;;;;;;18.50;65.50;;;;;;4971621;28;943;-68
2023/01/01 02:47:45;;;;;;;;;;;18.50;65.50;;;;;;4971757;28;1599;-68
2023/01/01 02:50:14;;;;;;;;;;;18.40;65.40;;;;;;4972498;28;1268;-68
2023/01/01 02:52:58;;;;;;;;;;;18.50;65.50;;;;;;4970800;28;916;-68
2023/01/01 02:55:24;;;;;;;;;;;18.50;65.60;;;;;;4971924;28;979;-69
2023/01/01 02:57:50;;;;;;;;;;;18.40;65.50;;;;;;4972992;28;960;-68
2023/01/01 03:00:30;;;;;;;;;;;18.40;65.50;;;;;;4971204;28;1375;-71
2023/01/01 03:03:12;;;;;;;;;;;18.40;66.30;;;;;;4971592;28;1898;-69
2023/01/01 03:06:21;;;;;;;;;;;18.50;65.60;;;;;;4971894;28;1245;-69
2023/01/01 03:08:28;;;;;;;;;;;18.40;65.50;;;;;;4971942;28;1004;-69
2023/01/01 03:10:57;;;;;;;;;;;18.40;65.50;;;;;;4971075;28;1285;-69
2023/01/01 03:13:25;;;;;;;;;;;18.40;65.60;;;;;;4971211;28;1210;-68
2023/01/01 03:16:00;;;;;;;;;;;18.40;65.60;;;;;;4972269;28;817;-72
2023/01/01 03:18:37;;;;;;;;;;;18.40;65.60;;;;;;4972174;28;866;-71
2023/01/01 03:21:03;;;;;;;;;;;18.40;65.60;;;;;;4970860;28;1322;-68
2023/01/01 03:23:30;;;;;;;;;;;18.40;65.60;;;;;;4971226;28;1898;-69
2023/01/01 03:25:56;;;;;;;;;;;18.40;65.60;;;;;;4970348;28;1367;-69
2023/01/01 03:28:31;;;;;;;;;;;18.40;65.60;;;;;;4971024;28;1358;-68
2023/01/01 03:30:56;;;;;;;;;;;18.40;65.60;;;;;;4970604;28;1776;-68
2023/01/01 03:33:32;;;;;;;;;;;18.40;65.70;;;;;;4987309;28;1339;-68
2023/01/01 03:35:58;;;;;;;;;;;18.40;65.60;;;;;;4971097;28;887;-69
2023/01/01 03:38:27;;;;;;;;;;;18.40;65.70;;;;;;4970903;28;1384;-69
2023/01/01 03:40:53;;;;;;;;;;;18.40;66.40;;;;;;4971391;28;1344;-68
2023/01/01 03:43:20;;;;;;;;;;;18.40;65.70;;;;;;4971044;28;1972;-68
2023/01/01 03:45:46;;;;;;;;;;;18.40;65.70;;;;;;4971320;28;908;-69
2023/01/01 03:48:12;;;;;;;;;;;18.40;65.70;;;;;;4972187;28;932;-72
2023/01/01 03:50:40;;;;;;;;;;;18.40;65.70;;;;;;4972737;28;1249;-69
2023/01/01 03:53:38;;;;;;;;;;;18.40;65.70;;;;;;4970548;28;896;-69
2023/01/01 03:56:13;;;;;;;;;;;18.40;65.70;;;;;;4937643;28;1208;-68
2023/01/01 03:58:40;;;;;;;;;;;18.40;65.80;;;;;;4970643;28;813;-69
2023/01/01 04:01:16;;;;;;;;;;;18.40;65.70;;;;;;4970200;28;1280;-68
2023/01/01 04:03:42;;;;;;;;;;;18.40;65.80;;;;;;4970626;28;1992;-67
2023/01/01 04:06:08;;;;;;;;;;;18.40;65.80;;;;;;4970733;28;1409;-68
2023/01/01 04:08:33;;;;;;;;;;;18.30;65.70;;;;;;4970357;28;908;-68
2023/01/01 04:10:59;;;;;;;;;;;18.40;65.80;;;;;;4969961;28;1376;-68
2023/01/01 04:13:24;;;;;;;;;;;18.40;65.80;;;;;;4970497;28;888;-69
2023/01/01 04:15:50;;;;;;;;;;;18.40;65.80;;;;;;4971668;28;797;-69
2023/01/01 04:18:15;;;;;;;;;;;18.40;65.80;;;;;;4971315;28;856;-69
2023/01/01 04:20:41;;;;;;;;;;;18.40;65.80;;;;;;4969792;28;1284;-68
2023/01/01 04:23:06;;;;;;;;;;;18.40;65.80;;;;;;4971568;28;1914;-69
2023/01/01 04:25:32;;;;;;;;;;;18.30;65.80;;;;;;4970939;28;1023;-68
2023/01/01 04:27:57;;;;;;;;;;;18.40;65.80;;;;;;4974036;28;777;-71
2023/01/01 04:30:23;;;;;;;;;;;18.40;65.80;;;;;;4977607;28;1315;-68
2023/01/01 04:32:50;;;;;;;;;;;18.40;65.90;;;;;;4978102;28;1098;-69
2023/01/01 04:35:15;;;;;;;;;;;18.30;65.80;;;;;;4978171;28;854;-69
2023/01/01 04:37:41;;;;;;;;;;;18.30;65.80;;;;;;4977902;28;916;-68
2023/01/01 04:40:07;;;;;;;;;;;18.30;65.80;;;;;;4976220;28;1626;-69
2023/01/01 04:42:32;;;;;;;;;;;18.40;65.90;;;;;;4976560;28;1973;-69
2023/01/01 04:44:58;;;;;;;;;;;18.30;65.90;;;;;;4976509;28;916;-69
2023/01/01 04:47:25;;;;;;;;;;;18.30;65.90;;;;;;4977719;28;979;-68
2023/01/01 04:49:51;;;;;;;;;;;18.30;65.80;;;;;;4977766;28;893;-68
2023/01/01 04:52:16;;;;;;;;;;;18.30;65.80;;;;;;4977763;28;1186;-69
2023/01/01 04:54:42;;;;;;;;;;;18.30;65.80;;;;;;4977726;28;799;-68
2023/01/01 04:57:07;;;;;;;;;;;18.40;66.00;;;;;;4977772;28;943;-68
2023/01/01 04:59:33;;;;;;;;;;;18.30;65.90;;;;;;4977779;28;784;-68
2023/01/01 05:01:58;;;;;;;;;;;18.30;65.90;;;;;;4976628;28;1895;-71
2023/01/01 05:04:24;;;;;;;;;;;18.30;65.90;;;;;;4977272;28;1335;-70
2023/01/01 05:06:49;;;;;;;;;;;18.30;65.90;;;;;;4977429;28;989;-70
2023/01/01 05:09:15;;;;;;;;;;;18.40;66.00;;;;;;4977123;28;928;-70
2023/01/01 05:11:40;;;;;;;;;;;18.30;66.60;;;;;;4977117;28;1205;-71
2023/01/01 05:14:05;;;;;;;;;;;18.30;65.80;;;;;;4977425;28;954;-71
2023/01/01 05:16:32;;;;;;;;;;;18.30;65.80;;;;;;4977131;28;854;-71
2023/01/01 05:18:57;;;;;;;;;;;18.30;65.70;;;;;;4977083;28;946;-71
2023/01/01 05:21:24;;;;;;;;;;;18.40;65.80;;;;;;4977114;28;1930;-71
2023/01/01 05:23:52;;;;;;;;;;;18.40;65.70;;;;;;4976060;28;1011;-71
2023/01/01 05:26:19;;;;;;;;;;;18.40;65.60;;;;;;4975812;28;1073;-71
2023/01/01 05:28:44;;;;;;;;;;;18.40;65.60;;;;;;4976038;28;813;-70
2023/01/01 05:31:11;;;;;;;;;;;18.40;65.50;;;;;;4975670;28;1257;-70
2023/01/01 05:33:37;;;;;;;;;;;18.40;65.50;;;;;;4977445;28;1749;-70
2023/01/01 05:36:03;;;;;;;;;;;18.50;65.40;;;;;;4977741;28;1629;-70
2023/01/01 05:38:28;;;;;;;;;;;18.50;65.40;;;;;;4975599;28;1040;-71
2023/01/01 05:40:54;;;;;;;;;;;18.50;65.30;;;;;;4973705;28;1261;-71
2023/01/01 05:43:19;;;;;;;;;;;18.50;65.20;;;;;;4974339;28;1894;-70
2023/01/01 05:45:45;;;;;;;;;;;18.50;65.20;;;;;;4973810;28;1279;-70
2023/01/01 05:48:10;;;;;;;;;;;18.50;65.10;;;;;;4973725;28;781;-70
2023/01/01 05:50:35;;;;;;;;;;;18.50;65.10;;;;;;4973790;28;1293;-70
2023/01/01 05:53:01;;;;;;;;;;;18.50;65.00;;;;;;4974244;28;1443;-70
2023/01/01 05:55:26;;;;;;;;;;;18.60;65.00;;;;;;4973729;28;763;-70
2023/01/01 05:57:52;;;;;;;;;;;18.60;65.00;;;;;;4974101;28;867;-70
2023/01/01 06:00:17;;;;;;;;;;;18.60;65.00;;;;;;4972722;28;1281;-70
2023/01/01 06:02:43;;;;;;;;;;;18.60;65.00;;;;;;4973669;28;1907;-70
2023/01/01 06:05:08;;;;;;;;;;;18.60;64.90;;;;;;4973045;28;1249;-70
2023/01/01 06:07:34;;;;;;;;;;;18.60;64.90;;;;;;4973806;28;939;-70
2023/01/01 06:09:59;;;;;;;;;;;18.60;64.90;;;;;;4973480;28;822;-70
2023/01/01 06:12:25;;;;;;;;;;;18.60;64.90;;;;;;4973010;28;1217;-70
2023/01/01 06:14:50;;;;;;;;;;;18.60;64.80;;;;;;4973298;28;1564;-70
2023/01/01 06:17:15;;;;;;;;;;;18.60;64.80;;;;;;4973388;28;1598;-70
2023/01/01 06:19:41;;;;;;;;;;;18.70;64.70;;;;;;4972443;28;868;-70
2023/01/01 06:22:06;;;;;;;;;;;18.80;64.60;;;;;;4973367;28;1966;-70
2023/01/01 06:24:32;;;;;;;;;;;18.80;64.50;;;;;;4973574;28;1007;-70
2023/01/01 06:26:57;;;;;;;;;;;18.90;64.30;;;;;;4973371;28;884;-70
2023/01/01 06:29:23;;;;;;;;;;;19.00;64.20;;;;;;4973078;28;949;-70
2023/01/01 06:31:48;;;;;;;;;;;19.00;64.00;;;;;;4973237;28;1234;-70
2023/01/01 06:34:14;;;;;;;;;;;19.10;63.80;;;;;;4973122;28;1015;-70
2023/01/01 06:36:39;;;;;;;;;;;19.20;63.60;;;;;;4987997;28;876;-70
2023/01/01 06:39:05;;;;;;;;;;;19.30;63.40;;;;;;4972869;28;1270;-70
2023/01/01 06:41:30;;;;;;;;;;;19.30;63.20;;;;;;4976192;28;1898;-71
2023/01/01 06:43:56;;;;;;;;;;;19.40;62.90;;;;;;4973206;28;863;-71
2023/01/01 06:46:22;;;;;;;;;;;19.50;62.70;;;;;;4972785;28;816;-70
2023/01/01 06:48:49;;;;;;;;;;;19.60;62.50;;;;;;4971702;28;795;-70
2023/01/01 06:51:15;;;;;;;;;;;19.60;62.30;;;;;;4972390;28;1348;-70
2023/01/01 06:53:41;;;;;;;;;;;19.60;62.20;;;;;;4971851;28;837;-70
2023/01/01 06:56:06;;;;;;;;;;;19.70;62.10;;;;;;4972877;28;860;-70
2023/01/01 06:58:32;;;;;;;;;;;19.70;62.00;;;;;;4972836;28;947;-70
2023/01/01 07:01:08;;;;;;;;;;;19.70;61.80;;;;;;4972210;28;1340;-70
2023/01/01 07:03:34;;;;;;;;;;;19.80;61.90;;;;;;4972215;28;1895;-70
2023/01/01 07:05:59;;;;;;;;;;;19.70;61.80;;;;;;4971003;28;1376;-70
2023/01/01 07:08:24;;;;;;;;;;;19.70;61.70;;;;;;4972395;28;1195;-70
2023/01/01 07:10:50;;;;;;;;;;;19.80;61.70;;;;;;4971927;28;1273;-70
2023/01/01 07:13:15;;;;;;;;;;;19.70;61.70;;;;;;4972467;28;872;-70
2023/01/01 07:15:43;;;;;;;;;;;19.80;61.80;;;;;;4972599;28;820;-71
2023/01/01 07:18:08;;;;;;;;;;;19.80;61.80;;;;;;4972680;28;991;-70
2023/01/01 07:20:34;;;;;;;;;;;19.80;61.70;;;;;;4972325;28;1277;-70
2023/01/01 07:23:01;;;;;;;;;;;19.70;61.70;;;;;;4972679;28;1910;-70
2023/01/01 07:25:26;;;;;;;;;;;19.70;61.70;;;;;;4973162;28;809;-71
2023/01/01 07:27:52;;;;;;;;;;;19.70;61.70;;;;;;4972167;28;860;-71
2023/01/01 07:30:17;;;;;;;;;;;19.70;61.80;;;;;;4971815;28;1660;-70
2023/01/01 07:32:43;;;;;;;;;;;19.70;61.80;;;;;;4971513;28;848;-70
2023/01/01 07:35:08;;;;;;;;;;;19.70;61.90;;;;;;4971440;28;916;-70
2023/01/01 07:37:34;;;;;;;;;;;19.70;62.00;;;;;;4971659;28;951;-70
2023/01/01 07:39:59;;;;;;;;;;;19.70;62.00;;;;;;4971645;28;1452;-70
2023/01/01 07:42:25;;;;;;;;;;;19.70;62.00;;;;;;4971688;28;1993;-70
2023/01/01 07:44:50;;;;;;;;;;;19.70;61.90;;;;;;4971908;28;908;-70
2023/01/01 07:47:22;;;;;;;;;;;19.70;61.90;;;;;;4971309;28;893;-70
2023/01/01 07:49:48;;;;;;;;;;;19.80;61.90;;;;;;4970294;28;1031;-70
2023/01/01 07:52:13;;;;;;;;;;;19.80;61.80;;;;;;4971679;28;1250;-70
2023/01/01 07:54:39;;;;;;;;;;;19.80;62.50;;;;;;4971996;28;812;-70
2023/01/01 07:57:04;;;;;;;;;;;19.90;61.70;;;;;;4971556;28;918;-70
2023/01/01 07:59:30;;;;;;;;;;;19.90;61.60;;;;;;4971213;28;888;-70
2023/01/01 08:01:55;;;;;;;;;;;20.00;61.60;;;;;;4970619;28;1957;-70
2023/01/01 08:04:20;;;;;;;;;;;20.00;61.50;;;;;;4969770;28;1380;-68
2023/01/01 08:06:46;;;;;;;;;;;20.00;61.30;;;;;;4971369;28;1300;-69
2023/01/01 08:09:11;;;;;;;;;;;20.10;61.20;;;;;;4970373;28;926;-69
2023/01/01 08:11:37;;;;;;;;;;;20.10;61.10;;;;;;4971370;28;1281;-69
2023/01/01 08:14:02;;;;;;;;;;;20.10;61.00;;;;;;4971591;28;920;-69
2023/01/01 08:16:28;;;;;;;;;;;20.20;61.00;;;;;;4971474;28;1078;-69
2023/01/01 08:18:53;;;;;;;;;;;20.20;60.90;;;;;;4971076;28;1246;-68
2023/01/01 08:21:19;;;;;;;;;;;20.20;60.90;;;;;;4969629;28;1546;-70
2023/01/01 08:23:44;;;;;;;;;;;20.20;61.30;;;;;;4969156;28;2079;-70
2023/01/01 08:26:13;;;;;;;;;;;20.20;61.40;;;;;;4969963;28;1426;-70
2023/01/01 08:28:38;;;;;;;;;;;20.20;61.70;;;;;;4969061;28;1629;-69
2023/01/01 08:31:04;;;;;;;;;;;20.20;61.70;;;;;;4970077;28;1330;-69
2023/01/01 08:33:29;;;;;;;;;;;20.20;62.00;;;;;;4970798;28;1262;-70
2023/01/01 08:35:55;;;;;;;;;;;20.20;62.20;;;;;;4971345;28;1011;-70
2023/01/01 08:38:20;;;;;;;;;;;20.20;62.40;;;;;;4971407;28;1419;-70
2023/01/01 08:40:46;;;;;;;;;;;20.20;62.40;;;;;;4969638;28;1273;-70
2023/01/01 08:43:11;;;;;;;;;;;20.20;62.50;;;;;;4969969;28;1950;-69
2023/01/01 08:45:37;;;;;;;;;;;20.20;62.90;;;;;;4969548;28;2168;-70
2023/01/01 08:48:02;;;;;;;;;;;20.20;62.70;;;;;;4971225;28;1351;-69
2023/01/01 08:50:28;;;;;;;;;;;20.20;62.90;;;;;;4970802;28;1258;-70
2023/01/01 08:52:53;;;;;;;;;;;20.20;63.10;;;;;;4969489;28;2273;-69
2023/01/01 08:55:19;;;;;;;;;;;20.20;63.20;;;;;;4963598;28;2126;-69
2023/01/01 08:57:44;;;;;;;;;;;20.10;63.30;;;;;;4969621;28;1230;-70
2023/01/01 09:00:12;;;;;;;;;;;20.10;63.50;;;;;;4970608;28;1406;-70
2023/01/01 09:02:37;;;;;;;;;;;20.10;63.60;;;;;;4969841;28;1902;-69
2023/01/01 09:05:03;;;;;;;;;;;20.10;63.90;;;;;;4970000;28;1357;-69
2023/01/01 09:07:28;;;;;;;;;;;20.10;63.90;;;;;;4970966;28;891;-70
2023/01/01 09:09:54;;;;;;;;;;;20.10;64.10;;;;;;4970785;28;827;-69
2023/01/01 09:12:19;;;;;;;;;;;20.10;64.20;;;;;;4971017;28;1279;-70
2023/01/01 09:14:48;;;;;;;;;;;20.00;64.30;;;;;;4974076;28;991;-70
2023/01/01 09:17:13;;;;;;;;;;;20.00;64.40;;;;;;4974994;28;1958;-70
2023/01/01 09:19:39;;;;;;;;;;;20.00;64.50;;;;;;4973984;28;2106;-70
2023/01/01 09:22:07;;;;;;;;;;;20.00;64.60;;;;;;4974285;28;1906;-70
2023/01/01 09:24:33;;;;;;;;;;;20.00;64.70;;;;;;4973320;28;1394;-70
2023/01/01 09:26:58;;;;;;;;;;;20.00;64.80;;;;;;4974574;28;1538;-70
2023/01/01 09:29:24;;;;;;;;;;;20.00;64.90;;;;;;4973146;28;1035;-70
2023/01/01 09:31:49;;;;;;;;;;;19.90;64.80;;;;;;4974518;28;1447;-69
2023/01/01 09:34:16;;;;;;;;;;;19.90;64.90;;;;;;4974030;28;2237;-69
2023/01/01 09:36:42;;;;;;;;;;;19.90;65.10;;;;;;4973783;28;1921;-69
2023/01/01 09:39:09;;;;;;;;;;;19.90;65.20;;;;;;4972569;28;1394;-69
2023/01/01 09:41:43;;;;;;;;;;;19.90;65.20;;;;;;4972302;28;2118;-69
2023/01/01 09:44:31;;;;;;;;;;;19.90;65.30;;;;;;4973966;28;1439;-69
2023/01/01 09:47:00;;;;;;;;;;;19.90;65.70;;;;;;4973453;28;1141;-69
2023/01/01 09:49:29;;;;;;;;;;;19.90;65.60;;;;;;4972369;28;908;-69
2023/01/01 09:51:57;;;;;;;;;;;19.80;65.60;;;;;;4974275;28;1253;-69
2023/01/01 09:54:50;;;;;;;;;;;19.80;65.50;;;;;;4973421;28;2117;-69
2023/01/01 09:57:15;;;;;;;;;;;19.80;65.70;;;;;;4970745;28;1343;-69
2023/01/01 09:59:41;;;;;;;;;;;19.80;65.70;;;;;;4972562;28;900;-69
2023/01/01 10:02:06;;;;;;;;;;;19.90;65.60;;;;;;4973752;28;1974;-70
2023/01/01 10:04:35;;;;;;;;;;;19.80;65.60;;;;;;4974266;28;1317;-70
2023/01/01 10:07:22;;;;;;;;;;;19.90;65.70;;;;;;4974190;28;1229;-70
2023/01/01 10:10:00;;;;;;;;;;;19.90;65.50;;;;;;4972071;28;892;-70
2023/01/01 10:12:28;;;;;;;;;;;19.90;65.40;;;;;;4973252;28;1253;-71
2023/01/01 10:14:54;;;;;;;;;;;20.00;65.50;;;;;;4973623;28;987;-70
2023/01/01 10:17:24;;;;;;;;;;;20.00;65.40;;;;;;4971742;28;896;-70
2023/01/01 10:19:50;;;;;;;;;;;20.00;65.20;;;;;;4972943;28;844;-70
2023/01/01 10:22:35;;;;;;;;;;;20.00;65.20;;;;;;4972037;28;1910;-70
2023/01/01 10:25:02;;;;;;;;;;;20.00;65.20;;;;;;4972601;28;930;-70
2023/01/01 10:27:32;;;;;;;;;;;20.00;65.20;;;;;;4971487;28;1019;-70
2023/01/01 10:29:59;;;;;;;;;;;20.00;65.20;;;;;;4973024;28;1045;-70
2023/01/01 10:32:26;;;;;;;;;;;20.00;65.40;;;;;;4971953;28;1379;-70
2023/01/01 10:34:52;;;;;;;;;;;20.00;65.50;;;;;;4972040;28;880;-70
2023/01/01 10:37:17;;;;;;;;;;;20.00;65.40;;;;;;4971975;28;987;-70
2023/01/01 10:39:43;;;;;;;;;;;20.00;65.60;;;;;;4971749;28;956;-70
2023/01/01 10:42:10;;;;;;;;;;;20.00;65.60;;;;;;4971547;28;2271;-70
2023/01/01 10:44:35;;;;;;;;;;;20.00;65.60;;;;;;4971799;28;1062;-71
2023/01/01 10:47:13;;;;;;;;;;;20.00;65.60;;;;;;4971254;28;1412;-70
2023/01/01 10:49:55;;;;;;;;;;;20.00;65.60;;;;;;4971174;28;1031;-70
2023/01/01 10:52:23;;;;;;;;;;;20.00;65.50;;;;;;4970874;28;1253;-70
2023/01/01 10:54:48;;;;;;;;;;;20.00;65.50;;;;;;4970700;28;1034;-70
2023/01/01 10:57:26;;;;;;;;;;;20.00;65.40;;;;;;4972674;28;1003;-70
2023/01/01 10:59:51;;;;;;;;;;;20.00;65.40;;;;;;4972773;28;1266;-71
2023/01/01 11:02:18;;;;;;;;;;;20.00;65.40;;;;;;4971775;28;1902;-70
2023/01/01 11:04:43;;;;;;;;;;;20.00;65.40;;;;;;4956483;28;1267;-70
2023/01/01 11:07:12;;;;;;;;;;;20.00;65.50;;;;;;4972072;28;1348;-70
2023/01/01 11:09:38;;;;;;;;;;;20.00;65.60;;;;;;4971352;28;1055;-70
2023/01/01 11:12:04;;;;;;;;;;;20.00;65.60;;;;;;4970910;28;1258;-71
2023/01/01 11:14:49;;;;;;;;;;;20.00;65.60;;;;;;4971329;28;856;-72
2023/01/01 11:17:24;;;;;;;;;;;20.00;65.60;;;;;;4971061;28;825;-71
2023/01/01 11:19:50;;;;;;;;;;;20.00;65.50;;;;;;4971107;28;935;-72
2023/01/01 11:22:36;;;;;;;;;;;20.00;65.50;;;;;;4972032;28;1972;-70
2023/01/01 11:25:01;;;;;;;;;;;20.00;65.50;;;;;;4971852;28;1103;-72
2023/01/01 11:27:27;;;;;;;;;;;20.00;65.50;;;;;;4952831;28;1186;-72
2023/01/01 11:30:05;;;;;;;;;;;20.10;65.30;;;;;;4971103;28;1023;-71
2023/01/01 11:32:32;;;;;;;;;;;20.10;65.20;;;;;;4969043;28;1315;-71
2023/01/01 11:35:01;;;;;;;;;;;20.10;65.10;;;;;;4971505;28;1062;-70
2023/01/01 11:37:34;;;;;;;;;;;20.20;65.10;;;;;;4970035;28;1010;-71
2023/01/01 11:40:00;;;;;;;;;;;20.20;65.00;;;;;;4970395;28;1304;-71
2023/01/01 11:42:29;;;;;;;;;;;20.20;65.00;;;;;;4970410;28;1985;-71
2023/01/01 11:44:55;;;;;;;;;;;20.20;65.00;;;;;;4971068;28;1078;-72
2023/01/01 11:47:22;;;;;;;;;;;20.20;65.30;;;;;;4972146;28;948;-72
2023/01/01 11:49:52;;;;;;;;;;;20.10;65.40;;;;;;4970776;28;892;-72
2023/01/01 11:52:28;;;;;;;;;;;20.10;65.50;;;;;;4970478;28;1360;-72
2023/01/01 11:54:56;;;;;;;;;;;20.10;65.70;;;;;;4971150;28;883;-71
2023/01/01 11:57:22;;;;;;;;;;;20.00;65.80;;;;;;4971878;28;866;-71
2023/01/01 11:59:49;;;;;;;;;;;20.00;65.80;;;;;;4970446;28;841;-71
2023/01/01 12:02:17;;;;;;;;;;;20.00;65.90;;;;;;4970376;28;1894;-72
2023/01/01 12:04:44;;;;;;;;;;;20.00;65.90;;;;;;4970438;28;893;-72
2023/01/01 12:07:11;;;;;;;;;;;20.00;65.80;;;;;;4970502;28;1513;-72
2023/01/01 12:09:36;;;;;;;;;;;20.00;65.80;;;;;;4968177;28;1043;-72
2023/01/01 12:12:20;;;;;;;;;;;20.10;65.80;;;;;;4970052;28;1460;-72
2023/01/01 12:14:46;;;;;;;;;;;20.10;65.80;;;;;;4971426;28;980;-72
2023/01/01 12:17:20;;;;;;;;;;;20.10;65.80;;;;;;4970228;28;1332;-72
2023/01/01 12:20:00;;;;;;;;;;;20.10;66.00;;;;;;4970997;28;915;-71
2023/01/01 12:22:26;;;;;;;;;;;20.00;65.80;;;;;;4970088;28;1973;-72
2023/01/01 12:24:51;;;;;;;;;;;20.00;65.90;;;;;;4970320;28;908;-71
2023/01/01 12:27:25;;;;;;;;;;;20.00;65.90;;;;;;4972075;28;828;-71
2023/01/01 12:29:54;;;;;;;;;;;20.00;66.00;;;;;;4971457;28;857;-71
2023/01/01 12:32:19;;;;;;;;;;;20.00;66.10;;;;;;4971795;28;1991;-70
2023/01/01 12:34:48;;;;;;;;;;;20.00;66.20;;;;;;4971719;28;1345;-72
2023/01/01 12:37:16;;;;;;;;;;;20.00;66.20;;;;;;4970191;28;1366;-71
2023/01/01 12:39:50;;;;;;;;;;;20.00;66.30;;;;;;4970137;28;1335;-72
2023/01/01 12:42:21;;;;;;;;;;;19.90;66.40;;;;;;4969946;28;1911;-71
2023/01/01 12:44:55;;;;;;;;;;;19.90;66.40;;;;;;4971114;28;876;-71
2023/01/01 12:47:36;;;;;;;;;;;19.90;66.50;;;;;;4971049;28;1186;-71
2023/01/01 12:50:04;;;;;;;;;;;19.90;66.50;;;;;;4974632;28;881;-71
2023/01/01 12:52:49;;;;;;;;;;;19.90;66.60;;;;;;4975930;28;1281;-72
2023/01/01 12:55:35;;;;;;;;;;;19.90;66.70;;;;;;4976933;28;967;-72
2023/01/01 12:58:07;;;;;;;;;;;19.90;66.80;;;;;;4974967;28;866;-72
2023/01/01 13:00:33;;;;;;;;;;;19.80;66.80;;;;;;4957810;28;1352;-71
2023/01/01 13:03:10;;;;;;;;;;;19.90;67.00;;;;;;4975717;28;1914;-71
2023/01/01 13:05:37;;;;;;;;;;;19.90;67.90;;;;;;4974484;28;801;-71
2023/01/01 13:08:03;;;;;;;;;;;19.80;66.50;;;;;;4974429;28;874;-72
2023/01/01 13:10:29;;;;;;;;;;;19.80;66.10;;;;;;4975346;28;1268;-71
2023/01/01 13:12:55;;;;;;;;;;;19.80;66.10;;;;;;4975569;28;860;-71
2023/01/01 13:15:33;;;;;;;;;;;19.80;66.20;;;;;;4973715;28;1441;-71
2023/01/01 13:17:58;;;;;;;;;;;19.70;66.20;;;;;;4974843;28;1124;-71
2023/01/01 13:20:25;;;;;;;;;;;19.70;66.30;;;;;;4973765;28;1348;-71
2023/01/01 13:22:50;;;;;;;;;;;19.60;66.20;;;;;;4974428;28;1927;-71
2023/01/01 13:25:16;;;;;;;;;;;19.60;66.30;;;;;;4974515;28;809;-71
2023/01/01 13:27:54;;;;;;;;;;;19.50;66.30;;;;;;4974527;28;1055;-71
2023/01/01 13:30:40;;;;;;;;;;;19.50;66.40;;;;;;4971399;28;1261;-71
2023/01/01 13:33:22;;;;;;;;;;;19.50;66.40;;;;;;4973557;28;1255;-71
2023/01/01 13:36:13;;;;;;;;;;;19.50;66.30;;;;;;4971613;28;2171;-71
2023/01/01 13:38:51;;;;;;;;;;;19.50;66.40;;;;;;4971127;28;1892;-71
2023/01/01 13:41:26;;;;;;;;;;;19.50;66.40;;;;;;4973588;28;1375;-71
2023/01/01 13:44:01;;;;;;;;;;;19.50;66.30;;;;;;4973774;28;1906;-71
2023/01/01 13:46:34;;;;;;;;;;;19.40;66.00;;;;;;4973848;28;916;-71
2023/01/01 13:49:18;;;;;;;;;;;19.40;66.00;;;;;;4971599;28;856;-71
2023/01/01 13:52:04;;;;;;;;;;;19.40;65.80;;;;;;4973980;28;1245;-71
2023/01/01 13:54:49;;;;;;;;;;;19.40;65.90;;;;;;4973121;28;1325;-71
2023/01/01 13:57:33;;;;;;;;;;;19.40;66.60;;;;;;4974390;28;1109;-71
2023/01/01 14:00:18;;;;;;;;;;;19.30;65.80;;;;;;4972090;28;1018;-71
2023/01/01 14:02:57;;;;;;;;;;;19.30;65.70;;;;;;4973910;28;1894;-71
2023/01/01 14:05:34;;;;;;;;;;;19.30;65.70;;;;;;4973724;28;946;-71
2023/01/01 14:07:59;;;;;;;;;;;19.30;65.80;;;;;;4971603;28;932;-71
2023/01/01 14:10:27;;;;;;;;;;;19.30;65.70;;;;;;4973921;28;1277;-71
2023/01/01 14:12:53;;;;;;;;;;;19.30;65.70;;;;;;4972994;28;975;-71
2023/01/01 14:15:23;;;;;;;;;;;19.30;65.60;;;;;;4955876;28;881;-71
2023/01/01 14:17:49;;;;;;;;;;;19.30;65.60;;;;;;4972897;28;871;-71
2023/01/01 14:20:16;;;;;;;;;;;19.20;65.50;;;;;;4973319;28;1194;-71
2023/01/01 14:22:42;;;;;;;;;;;19.20;65.50;;;;;;4972524;28;1931;-71
2023/01/01 14:25:12;;;;;;;;;;;19.20;65.50;;;;;;4972520;28;873;-71
2023/01/01 14:27:38;;;;;;;;;;;19.20;65.50;;;;;;4972422;28;927;-72
2023/01/01 14:30:03;;;;;;;;;;;19.20;65.40;;;;;;4972005;28;1090;-72
2023/01/01 14:32:32;;;;;;;;;;;19.20;66.30;;;;;;4971917;28;1923;-71
2023/01/01 14:34:59;;;;;;;;;;;19.20;65.50;;;;;;4973194;28;1372;-71
2023/01/01 14:37:24;;;;;;;;;;;19.20;65.40;;;;;;4970558;28;2164;-71
2023/01/01 14:40:09;;;;;;;;;;;19.20;65.50;;;;;;4971316;28;2136;-71
2023/01/01 14:42:34;;;;;;;;;;;19.10;65.40;;;;;;4973276;28;1910;-72